Terminal Aerodrome Forecast
Issued by NWS

Current Version | Previous Version | Graphics & Text | Print | Product List | Glossary On
Versions: 1 2 3 4 5 6 7 8 9 10 11 12 13 14 15 16 17 18
000
FTUS41 KILN 291743
TAFLCK
TAF
KLCK 291743Z 2918/3018 22008KT P6SM VCTS BKN040CB
     FM300000 17004KT P6SM SCT040 BKN150
     FM301400 21007KT P6SM BKN040=

USA.gov is the U.S. government's official web portal to all federal, state and local government web resources and services.